sensor_id;sensor_type;location;lat;lon;timestamp;P1;durP1;ratioP1;P2;durP2;ratioP2
10641;SDS011;5369;49.586;8.646;2023-06-22T00:01:56;6.53;;;5.93;;
10641;SDS011;5369;49.586;8.646;2023-06-22T00:04:22;7.33;;;6.20;;
10641;SDS011;5369;49.586;8.646;2023-06-22T00:06:48;7.33;;;6.10;;
10641;SDS011;5369;49.586;8.646;2023-06-22T00:09:14;6.63;;;5.80;;
10641;SDS011;5369;49.586;8.646;2023-06-22T00:11:40;7.30;;;5.90;;
10641;SDS011;5369;49.586;8.646;2023-06-22T00:14:06;5.87;;;5.37;;
10641;SDS011;5369;49.586;8.646;2023-06-22T00:16:33;6.37;;;5.77;;
10641;SDS011;5369;49.586;8.646;2023-06-22T00:18:59;5.33;;;4.83;;
10641;SDS011;5369;49.586;8.646;2023-06-22T00:21:26;5.90;;;5.03;;
10641;SDS011;5369;49.586;8.646;2023-06-22T00:23:52;6.23;;;5.63;;
10641;SDS011;5369;49.586;8.646;2023-06-22T00:26:19;6.97;;;5.80;;
10641;SDS011;5369;49.586;8.646;2023-06-22T00:28:46;7.23;;;6.37;;
10641;SDS011;5369;49.586;8.646;2023-06-22T00:31:12;6.80;;;6.10;;
10641;SDS011;5369;49.586;8.646;2023-06-22T00:33:38;6.30;;;5.70;;
10641;SDS011;5369;49.586;8.646;2023-06-22T00:36:05;5.70;;;5.20;;
10641;SDS011;5369;49.586;8.646;2023-06-22T00:38:33;6.10;;;5.50;;
10641;SDS011;5369;49.586;8.646;2023-06-22T00:41:00;5.60;;;5.10;;
10641;SDS011;5369;49.586;8.646;2023-06-22T00:43:26;5.80;;;4.90;;
10641;SDS011;5369;49.586;8.646;2023-06-22T00:45:55;5.33;;;4.83;;
10641;SDS011;5369;49.586;8.646;2023-06-22T00:48:22;5.93;;;5.33;;
10641;SDS011;5369;49.586;8.646;2023-06-22T00:50:48;5.80;;;5.30;;
10641;SDS011;5369;49.586;8.646;2023-06-22T00:53:16;7.83;;;6.83;;
10641;SDS011;5369;49.586;8.646;2023-06-22T00:55:43;8.97;;;8.07;;
10641;SDS011;5369;49.586;8.646;2023-06-22T00:58:12;8.80;;;8.00;;
10641;SDS011;5369;49.586;8.646;2023-06-22T01:00:40;9.23;;;8.33;;
10641;SDS011;5369;49.586;8.646;2023-06-22T01:03:06;8.40;;;7.13;;
10641;SDS011;5369;49.586;8.646;2023-06-22T01:05:36;9.13;;;8.33;;
10641;SDS011;5369;49.586;8.646;2023-06-22T01:13:23;12.70;;;9.00;;
10641;SDS011;5369;49.586;8.646;2023-06-22T01:15:53;9.03;;;8.23;;
10641;SDS011;5369;49.586;8.646;2023-06-22T01:18:21;11.10;;;9.63;;
10641;SDS011;5369;49.586;8.646;2023-06-22T01:20:51;10.80;;;9.70;;
10641;SDS011;5369;49.586;8.646;2023-06-22T01:23:22;11.13;;;10.03;;
10641;SDS011;5369;49.586;8.646;2023-06-22T01:25:58;13.80;;;9.83;;
10641;SDS011;5369;49.586;8.646;2023-06-22T01:30:57;9.73;;;8.83;;
10641;SDS011;5369;49.586;8.646;2023-06-22T01:33:31;10.40;;;9.10;;
10641;SDS011;5369;49.586;8.646;2023-06-22T01:35:58;8.43;;;7.73;;
10641;SDS011;5369;49.586;8.646;2023-06-22T01:38:25;9.13;;;8.23;;
10641;SDS011;5369;49.586;8.646;2023-06-22T01:40:52;9.33;;;8.50;;
10641;SDS011;5369;49.586;8.646;2023-06-22T01:43:19;9.20;;;8.40;;
10641;SDS011;5369;49.586;8.646;2023-06-22T01:45:48;9.03;;;8.20;;
10641;SDS011;5369;49.586;8.646;2023-06-22T01:48:14;8.90;;;8.10;;
10641;SDS011;5369;49.586;8.646;2023-06-22T01:50:41;8.37;;;7.67;;
10641;SDS011;5369;49.586;8.646;2023-06-22T01:53:07;9.17;;;8.30;;
10641;SDS011;5369;49.586;8.646;2023-06-22T01:55:33;9.53;;;8.63;;
10641;SDS011;5369;49.586;8.646;2023-06-22T01:57:59;9.00;;;8.10;;
10641;SDS011;5369;49.586;8.646;2023-06-22T02:00:26;9.23;;;8.33;;
10641;SDS011;5369;49.586;8.646;2023-06-22T02:02:59;9.47;;;8.67;;
10641;SDS011;5369;49.586;8.646;2023-06-22T02:05:29;9.57;;;8.60;;
10641;SDS011;5369;49.586;8.646;2023-06-22T02:08:07;9.83;;;8.30;;
10641;SDS011;5369;49.586;8.646;2023-06-22T02:10:34;8.90;;;8.10;;
10641;SDS011;5369;49.586;8.646;2023-06-22T02:13:05;9.27;;;8.40;;
10641;SDS011;5369;49.586;8.646;2023-06-22T02:15:32;9.17;;;8.27;;
10641;SDS011;5369;49.586;8.646;2023-06-22T02:17:59;8.60;;;7.80;;
10641;SDS011;5369;49.586;8.646;2023-06-22T02:20:25;9.07;;;8.27;;
10641;SDS011;5369;49.586;8.646;2023-06-22T02:22:51;9.20;;;8.23;;
10641;SDS011;5369;49.586;8.646;2023-06-22T02:25:17;9.23;;;8.33;;
10641;SDS011;5369;49.586;8.646;2023-06-22T02:27:45;9.10;;;8.20;;
10641;SDS011;5369;49.586;8.646;2023-06-22T02:30:11;8.13;;;7.33;;
10641;SDS011;5369;49.586;8.646;2023-06-22T02:32:38;8.27;;;7.43;;
10641;SDS011;5369;49.586;8.646;2023-06-22T02:35:10;8.47;;;7.60;;
10641;SDS011;5369;49.586;8.646;2023-06-22T02:37:36;7.73;;;7.03;;
10641;SDS011;5369;49.586;8.646;2023-06-22T02:40:09;9.50;;;8.03;;
10641;SDS011;5369;49.586;8.646;2023-06-22T02:42:36;8.30;;;7.50;;
10641;SDS011;5369;49.586;8.646;2023-06-22T02:45:03;8.93;;;8.03;;
10641;SDS011;5369;49.586;8.646;2023-06-22T02:47:29;8.50;;;7.70;;
10641;SDS011;5369;49.586;8.646;2023-06-22T02:49:56;11.10;;;8.00;;
10641;SDS011;5369;49.586;8.646;2023-06-22T02:52:22;10.33;;;8.30;;
10641;SDS011;5369;49.586;8.646;2023-06-22T02:54:48;8.17;;;7.33;;
10641;SDS011;5369;49.586;8.646;2023-06-22T02:57:14;10.03;;;9.03;;
10641;SDS011;5369;49.586;8.646;2023-06-22T02:59:42;8.90;;;8.00;;
10641;SDS011;5369;49.586;8.646;2023-06-22T03:02:10;8.93;;;8.03;;
10641;SDS011;5369;49.586;8.646;2023-06-22T03:04:37;8.27;;;7.50;;
10641;SDS011;5369;49.586;8.646;2023-06-22T03:07:03;8.17;;;7.40;;
10641;SDS011;5369;49.586;8.646;2023-06-22T03:09:31;8.33;;;7.50;;
10641;SDS011;5369;49.586;8.646;2023-06-22T03:11:57;8.10;;;7.30;;
10641;SDS011;5369;49.586;8.646;2023-06-22T03:14:29;8.80;;;7.90;;
10641;SDS011;5369;49.586;8.646;2023-06-22T03:16:55;8.97;;;8.17;;
10641;SDS011;5369;49.586;8.646;2023-06-22T03:19:26;8.77;;;7.97;;
10641;SDS011;5369;49.586;8.646;2023-06-22T03:21:55;8.33;;;7.53;;
10641;SDS011;5369;49.586;8.646;2023-06-22T03:24:21;8.10;;;7.40;;
10641;SDS011;5369;49.586;8.646;2023-06-22T03:26:47;8.63;;;7.80;;
10641;SDS011;5369;49.586;8.646;2023-06-22T03:29:13;8.10;;;7.33;;
10641;SDS011;5369;49.586;8.646;2023-06-22T03:31:41;8.63;;;7.83;;
10641;SDS011;5369;49.586;8.646;2023-06-22T03:34:08;8.63;;;7.83;;
10641;SDS011;5369;49.586;8.646;2023-06-22T03:36:34;8.07;;;7.37;;
10641;SDS011;5369;49.586;8.646;2023-06-22T03:39:01;8.17;;;7.37;;
10641;SDS011;5369;49.586;8.646;2023-06-22T03:41:27;8.37;;;7.57;;
10641;SDS011;5369;49.586;8.646;2023-06-22T03:43:54;8.07;;;7.27;;
10641;SDS011;5369;49.586;8.646;2023-06-22T03:46:20;7.20;;;6.60;;
10641;SDS011;5369;49.586;8.646;2023-06-22T03:48:46;8.00;;;7.30;;
10641;SDS011;5369;49.586;8.646;2023-06-22T03:51:12;7.63;;;6.93;;
10641;SDS011;5369;49.586;8.646;2023-06-22T03:53:39;8.20;;;7.40;;
10641;SDS011;5369;49.586;8.646;2023-06-22T03:56:05;7.07;;;6.37;;
10641;SDS011;5369;49.586;8.646;2023-06-22T03:58:31;7.73;;;6.93;;
10641;SDS011;5369;49.586;8.646;2023-06-22T04:00:58;7.97;;;7.27;;
10641;SDS011;5369;49.586;8.646;2023-06-22T04:03:25;8.20;;;7.47;;
10641;SDS011;5369;49.586;8.646;2023-06-22T04:05:51;8.10;;;7.30;;
10641;SDS011;5369;49.586;8.646;2023-06-22T04:08:17;8.57;;;7.57;;
10641;SDS011;5369;49.586;8.646;2023-06-22T04:10:44;8.30;;;7.50;;
10641;SDS011;5369;49.586;8.646;2023-06-22T04:13:10;8.43;;;7.50;;
10641;SDS011;5369;49.586;8.646;2023-06-22T04:15:36;8.20;;;7.40;;
10641;SDS011;5369;49.586;8.646;2023-06-22T04:18:02;8.10;;;7.30;;
10641;SDS011;5369;49.586;8.646;2023-06-22T04:20:28;8.20;;;7.40;;
10641;SDS011;5369;49.586;8.646;2023-06-22T04:22:54;7.40;;;6.80;;
10641;SDS011;5369;49.586;8.646;2023-06-22T04:25:21;11.17;;;7.50;;
10641;SDS011;5369;49.586;8.646;2023-06-22T04:27:48;9.03;;;7.53;;
10641;SDS011;5369;49.586;8.646;2023-06-22T04:30:14;9.40;;;8.40;;
10641;SDS011;5369;49.586;8.646;2023-06-22T04:32:41;8.97;;;8.17;;
10641;SDS011;5369;49.586;8.646;2023-06-22T04:35:07;8.80;;;8.00;;
10641;SDS011;5369;49.586;8.646;2023-06-22T04:37:33;9.27;;;8.37;;
10641;SDS011;5369;49.586;8.646;2023-06-22T04:40:00;10.67;;;8.07;;
10641;SDS011;5369;49.586;8.646;2023-06-22T04:42:26;8.70;;;7.80;;
10641;SDS011;5369;49.586;8.646;2023-06-22T04:44:52;8.97;;;8.10;;
10641;SDS011;5369;49.586;8.646;2023-06-22T04:47:19;8.40;;;7.70;;
10641;SDS011;5369;49.586;8.646;2023-06-22T04:49:45;7.97;;;7.17;;
10641;SDS011;5369;49.586;8.646;2023-06-22T04:52:12;9.00;;;7.43;;
10641;SDS011;5369;49.586;8.646;2023-06-22T04:54:39;9.13;;;7.87;;
10641;SDS011;5369;49.586;8.646;2023-06-22T04:57:13;8.20;;;7.50;;
10641;SDS011;5369;49.586;8.646;2023-06-22T04:59:40;9.37;;;8.03;;
10641;SDS011;5369;49.586;8.646;2023-06-22T05:02:07;10.90;;;8.87;;
10641;SDS011;5369;49.586;8.646;2023-06-22T05:04:33;12.30;;;10.23;;
10641;SDS011;5369;49.586;8.646;2023-06-22T05:07:06;9.50;;;8.60;;
10641;SDS011;5369;49.586;8.646;2023-06-22T05:09:32;10.87;;;9.60;;
10641;SDS011;5369;49.586;8.646;2023-06-22T05:12:01;10.13;;;9.13;;
10641;SDS011;5369;49.586;8.646;2023-06-22T05:14:28;11.73;;;9.27;;
10641;SDS011;5369;49.586;8.646;2023-06-22T05:16:55;11.10;;;8.90;;
10641;SDS011;5369;49.586;8.646;2023-06-22T05:19:24;9.57;;;8.33;;
10641;SDS011;5369;49.586;8.646;2023-06-22T05:21:50;9.93;;;8.93;;
10641;SDS011;5369;49.586;8.646;2023-06-22T05:24:16;10.77;;;9.67;;
10641;SDS011;5369;49.586;8.646;2023-06-22T05:26:42;11.37;;;8.27;;
10641;SDS011;5369;49.586;8.646;2023-06-22T05:29:09;10.07;;;9.07;;
10641;SDS011;5369;49.586;8.646;2023-06-22T05:31:35;9.30;;;8.40;;
10641;SDS011;5369;49.586;8.646;2023-06-22T05:34:01;10.57;;;9.47;;
10641;SDS011;5369;49.586;8.646;2023-06-22T05:36:27;11.47;;;9.23;;
10641;SDS011;5369;49.586;8.646;2023-06-22T05:38:53;11.37;;;8.20;;
10641;SDS011;5369;49.586;8.646;2023-06-22T05:41:19;11.53;;;8.90;;
10641;SDS011;5369;49.586;8.646;2023-06-22T05:43:45;10.80;;;8.57;;
10641;SDS011;5369;49.586;8.646;2023-06-22T05:46:12;11.90;;;8.80;;
10641;SDS011;5369;49.586;8.646;2023-06-22T05:48:38;12.43;;;8.33;;
10641;SDS011;5369;49.586;8.646;2023-06-22T05:51:04;11.33;;;8.30;;
10641;SDS011;5369;49.586;8.646;2023-06-22T05:53:30;13.07;;;9.13;;
10641;SDS011;5369;49.586;8.646;2023-06-22T05:55:56;11.37;;;8.53;;
10641;SDS011;5369;49.586;8.646;2023-06-22T05:58:22;10.50;;;7.63;;
10641;SDS011;5369;49.586;8.646;2023-06-22T06:00:48;10.43;;;7.87;;
10641;SDS011;5369;49.586;8.646;2023-06-22T06:03:15;9.67;;;7.67;;
10641;SDS011;5369;49.586;8.646;2023-06-22T06:05:42;9.03;;;7.77;;
10641;SDS011;5369;49.586;8.646;2023-06-22T06:08:08;9.93;;;8.00;;
10641;SDS011;5369;49.586;8.646;2023-06-22T06:10:36;9.23;;;7.70;;
10641;SDS011;5369;49.586;8.646;2023-06-22T06:13:02;8.47;;;7.47;;
10641;SDS011;5369;49.586;8.646;2023-06-22T06:15:29;8.63;;;7.63;;
10641;SDS011;5369;49.586;8.646;2023-06-22T06:17:56;10.13;;;7.90;;
10641;SDS011;5369;49.586;8.646;2023-06-22T06:20:23;7.80;;;7.10;;
10641;SDS011;5369;49.586;8.646;2023-06-22T06:22:49;8.43;;;7.63;;
10641;SDS011;5369;49.586;8.646;2023-06-22T06:25:16;8.80;;;7.10;;
10641;SDS011;5369;49.586;8.646;2023-06-22T06:27:44;7.77;;;6.97;;
10641;SDS011;5369;49.586;8.646;2023-06-22T06:30:10;8.13;;;6.80;;
10641;SDS011;5369;49.586;8.646;2023-06-22T06:32:36;9.20;;;7.70;;
10641;SDS011;5369;49.586;8.646;2023-06-22T06:35:05;7.90;;;7.20;;
10641;SDS011;5369;49.586;8.646;2023-06-22T06:37:31;9.90;;;7.50;;
10641;SDS011;5369;49.586;8.646;2023-06-22T06:39:57;8.20;;;7.40;;
10641;SDS011;5369;49.586;8.646;2023-06-22T06:42:23;8.27;;;7.40;;
10641;SDS011;5369;49.586;8.646;2023-06-22T06:44:49;8.70;;;7.73;;
10641;SDS011;5369;49.586;8.646;2023-06-22T06:47:16;8.10;;;7.30;;
10641;SDS011;5369;49.586;8.646;2023-06-22T06:49:42;7.87;;;7.13;;
10641;SDS011;5369;49.586;8.646;2023-06-22T06:52:13;7.73;;;6.97;;
10641;SDS011;5369;49.586;8.646;2023-06-22T06:54:39;7.70;;;7.03;;
10641;SDS011;5369;49.586;8.646;2023-06-22T06:57:07;7.80;;;7.07;;
10641;SDS011;5369;49.586;8.646;2023-06-22T06:59:35;7.33;;;6.57;;
10641;SDS011;5369;49.586;8.646;2023-06-22T07:02:01;7.30;;;6.60;;
10641;SDS011;5369;49.586;8.646;2023-06-22T07:04:28;8.40;;;7.60;;
10641;SDS011;5369;49.586;8.646;2023-06-22T07:06:54;7.87;;;7.07;;
10641;SDS011;5369;49.586;8.646;2023-06-22T07:09:20;8.93;;;7.07;;
10641;SDS011;5369;49.586;8.646;2023-06-22T07:11:46;8.17;;;7.33;;
10641;SDS011;5369;49.586;8.646;2023-06-22T07:14:12;7.73;;;7.03;;
10641;SDS011;5369;49.586;8.646;2023-06-22T07:16:38;7.40;;;6.70;;
10641;SDS011;5369;49.586;8.646;2023-06-22T07:19:04;7.13;;;6.47;;
10641;SDS011;5369;49.586;8.646;2023-06-22T07:21:30;7.63;;;6.93;;
10641;SDS011;5369;49.586;8.646;2023-06-22T07:23:56;9.23;;;7.43;;
10641;SDS011;5369;49.586;8.646;2023-06-22T07:26:23;8.73;;;7.30;;
10641;SDS011;5369;49.586;8.646;2023-06-22T07:28:49;8.23;;;7.13;;
10641;SDS011;5369;49.586;8.646;2023-06-22T07:31:16;7.90;;;7.13;;
10641;SDS011;5369;49.586;8.646;2023-06-22T07:33:42;8.10;;;7.30;;
10641;SDS011;5369;49.586;8.646;2023-06-22T07:36:08;9.23;;;7.57;;
10641;SDS011;5369;49.586;8.646;2023-06-22T07:38:34;8.63;;;7.33;;
10641;SDS011;5369;49.586;8.646;2023-06-22T07:41:00;9.00;;;7.07;;
10641;SDS011;5369;49.586;8.646;2023-06-22T07:43:27;7.80;;;7.13;;
10641;SDS011;5369;49.586;8.646;2023-06-22T07:45:55;7.90;;;7.07;;
10641;SDS011;5369;49.586;8.646;2023-06-22T07:48:21;7.40;;;6.70;;
10641;SDS011;5369;49.586;8.646;2023-06-22T07:50:47;8.80;;;6.80;;
10641;SDS011;5369;49.586;8.646;2023-06-22T07:53:13;7.80;;;6.97;;
10641;SDS011;5369;49.586;8.646;2023-06-22T07:55:39;7.57;;;6.67;;
10641;SDS011;5369;49.586;8.646;2023-06-22T07:58:06;9.63;;;6.90;;
10641;SDS011;5369;49.586;8.646;2023-06-22T08:00:33;7.10;;;6.40;;
10641;SDS011;5369;49.586;8.646;2023-06-22T08:02:59;7.60;;;6.67;;
10641;SDS011;5369;49.586;8.646;2023-06-22T08:05:28;7.10;;;6.40;;
10641;SDS011;5369;49.586;8.646;2023-06-22T08:07:55;7.00;;;6.30;;
10641;SDS011;5369;49.586;8.646;2023-06-22T08:10:21;7.83;;;6.60;;
10641;SDS011;5369;49.586;8.646;2023-06-22T08:12:47;7.57;;;6.50;;
10641;SDS011;5369;49.586;8.646;2023-06-22T08:15:13;6.90;;;6.30;;
10641;SDS011;5369;49.586;8.646;2023-06-22T08:17:39;7.87;;;6.33;;
10641;SDS011;5369;49.586;8.646;2023-06-22T08:20:06;6.97;;;6.27;;
10641;SDS011;5369;49.586;8.646;2023-06-22T08:22:37;7.40;;;6.60;;
10641;SDS011;5369;49.586;8.646;2023-06-22T08:25:03;7.30;;;6.60;;
10641;SDS011;5369;49.586;8.646;2023-06-22T08:27:30;6.90;;;6.30;;
10641;SDS011;5369;49.586;8.646;2023-06-22T08:30:00;6.73;;;6.13;;
10641;SDS011;5369;49.586;8.646;2023-06-22T08:32:28;7.03;;;6.20;;
10641;SDS011;5369;49.586;8.646;2023-06-22T08:34:55;8.87;;;6.37;;
10641;SDS011;5369;49.586;8.646;2023-06-22T08:37:21;7.33;;;6.63;;
10641;SDS011;5369;49.586;8.646;2023-06-22T08:39:58;7.53;;;6.73;;
10641;SDS011;5369;49.586;8.646;2023-06-22T08:42:26;6.87;;;6.20;;
10641;SDS011;5369;49.586;8.646;2023-06-22T08:44:52;8.73;;;6.33;;
10641;SDS011;5369;49.586;8.646;2023-06-22T08:47:19;6.77;;;6.17;;
10641;SDS011;5369;49.586;8.646;2023-06-22T08:49:46;6.50;;;5.90;;
10641;SDS011;5369;49.586;8.646;2023-06-22T08:52:12;7.37;;;6.67;;
10641;SDS011;5369;49.586;8.646;2023-06-22T08:54:38;6.20;;;5.60;;
10641;SDS011;5369;49.586;8.646;2023-06-22T08:57:05;6.77;;;6.03;;
10641;SDS011;5369;49.586;8.646;2023-06-22T08:59:31;6.63;;;5.90;;
10641;SDS011;5369;49.586;8.646;2023-06-22T09:01:58;6.93;;;6.23;;
10641;SDS011;5369;49.586;8.646;2023-06-22T09:04:24;7.10;;;6.40;;
10641;SDS011;5369;49.586;8.646;2023-06-22T09:06:50;6.73;;;5.70;;
10641;SDS011;5369;49.586;8.646;2023-06-22T09:09:17;6.50;;;5.90;;
10641;SDS011;5369;49.586;8.646;2023-06-22T09:11:44;6.40;;;5.80;;
10641;SDS011;5369;49.586;8.646;2023-06-22T09:14:10;6.63;;;5.90;;
10641;SDS011;5369;49.586;8.646;2023-06-22T09:16:36;5.80;;;5.30;;
10641;SDS011;5369;49.586;8.646;2023-06-22T09:19:03;6.57;;;5.97;;
10641;SDS011;5369;49.586;8.646;2023-06-22T09:21:29;6.67;;;6.07;;
10641;SDS011;5369;49.586;8.646;2023-06-22T09:23:55;7.20;;;5.87;;
10641;SDS011;5369;49.586;8.646;2023-06-22T09:26:22;7.00;;;6.20;;
10641;SDS011;5369;49.586;8.646;2023-06-22T09:28:49;6.47;;;5.87;;
10641;SDS011;5369;49.586;8.646;2023-06-22T09:31:15;8.47;;;6.20;;
10641;SDS011;5369;49.586;8.646;2023-06-22T09:33:42;7.27;;;5.80;;
10641;SDS011;5369;49.586;8.646;2023-06-22T09:36:08;6.57;;;5.93;;
10641;SDS011;5369;49.586;8.646;2023-06-22T09:38:37;6.70;;;5.90;;
10641;SDS011;5369;49.586;8.646;2023-06-22T09:41:04;6.63;;;5.90;;
10641;SDS011;5369;49.586;8.646;2023-06-22T09:43:31;6.43;;;5.83;;
10641;SDS011;5369;49.586;8.646;2023-06-22T09:45:57;6.30;;;5.60;;
10641;SDS011;5369;49.586;8.646;2023-06-22T09:48:23;10.53;;;5.87;;
10641;SDS011;5369;49.586;8.646;2023-06-22T09:50:50;6.37;;;5.77;;
10641;SDS011;5369;49.586;8.646;2023-06-22T09:53:16;7.63;;;5.97;;
10641;SDS011;5369;49.586;8.646;2023-06-22T09:55:42;7.67;;;5.70;;
10641;SDS011;5369;49.586;8.646;2023-06-22T09:58:08;8.67;;;5.83;;
10641;SDS011;5369;49.586;8.646;2023-06-22T10:00:35;5.57;;;4.90;;
10641;SDS011;5369;49.586;8.646;2023-06-22T10:03:01;6.20;;;5.30;;
10641;SDS011;5369;49.586;8.646;2023-06-22T10:05:27;8.23;;;5.30;;
10641;SDS011;5369;49.586;8.646;2023-06-22T10:07:53;6.80;;;5.60;;
10641;SDS011;5369;49.586;8.646;2023-06-22T10:10:19;9.57;;;5.30;;
10641;SDS011;5369;49.586;8.646;2023-06-22T10:12:46;6.43;;;5.07;;
10641;SDS011;5369;49.586;8.646;2023-06-22T10:15:13;7.67;;;5.53;;
10641;SDS011;5369;49.586;8.646;2023-06-22T10:17:40;10.80;;;5.70;;
10641;SDS011;5369;49.586;8.646;2023-06-22T10:20:06;11.30;;;6.20;;
10641;SDS011;5369;49.586;8.646;2023-06-22T10:22:40;8.10;;;5.60;;
10641;SDS011;5369;49.586;8.646;2023-06-22T10:25:07;10.13;;;5.70;;
10641;SDS011;5369;49.586;8.646;2023-06-22T10:27:33;10.37;;;5.63;;
10641;SDS011;5369;49.586;8.646;2023-06-22T10:29:59;7.73;;;5.70;;
10641;SDS011;5369;49.586;8.646;2023-06-22T10:32:25;6.63;;;5.57;;
10641;SDS011;5369;49.586;8.646;2023-06-22T10:34:53;7.40;;;5.63;;
10641;SDS011;5369;49.586;8.646;2023-06-22T10:37:20;9.03;;;5.63;;
10641;SDS011;5369;49.586;8.646;2023-06-22T10:39:46;9.53;;;5.53;;
10641;SDS011;5369;49.586;8.646;2023-06-22T10:42:12;6.27;;;5.67;;
10641;SDS011;5369;49.586;8.646;2023-06-22T10:44:38;9.10;;;5.57;;
10641;SDS011;5369;49.586;8.646;2023-06-22T10:47:06;9.20;;;5.47;;
10641;SDS011;5369;49.586;8.646;2023-06-22T10:49:32;6.70;;;5.20;;
10641;SDS011;5369;49.586;8.646;2023-06-22T10:51:58;9.20;;;5.87;;
10641;SDS011;5369;49.586;8.646;2023-06-22T10:54:24;7.53;;;5.57;;
10641;SDS011;5369;49.586;8.646;2023-06-22T10:56:51;8.03;;;5.77;;
10641;SDS011;5369;49.586;8.646;2023-06-22T10:59:17;8.43;;;5.73;;
10641;SDS011;5369;49.586;8.646;2023-06-22T11:01:43;8.43;;;5.30;;
10641;SDS011;5369;49.586;8.646;2023-06-22T11:04:09;9.80;;;6.20;;
10641;SDS011;5369;49.586;8.646;2023-06-22T11:06:35;7.77;;;5.47;;
10641;SDS011;5369;49.586;8.646;2023-06-22T11:09:01;8.80;;;5.53;;
10641;SDS011;5369;49.586;8.646;2023-06-22T11:11:29;7.20;;;5.10;;
10641;SDS011;5369;49.586;8.646;2023-06-22T11:13:55;9.57;;;6.03;;
10641;SDS011;5369;49.586;8.646;2023-06-22T11:16:21;8.27;;;6.10;;
10641;SDS011;5369;49.586;8.646;2023-06-22T11:18:47;11.40;;;5.90;;
10641;SDS011;5369;49.586;8.646;2023-06-22T11:21:13;10.73;;;6.20;;
10641;SDS011;5369;49.586;8.646;2023-06-22T11:23:39;9.37;;;5.93;;
10641;SDS011;5369;49.586;8.646;2023-06-22T11:26:05;9.00;;;5.73;;
10641;SDS011;5369;49.586;8.646;2023-06-22T11:28:31;9.13;;;5.63;;
10641;SDS011;5369;49.586;8.646;2023-06-22T11:30:57;8.57;;;5.77;;
10641;SDS011;5369;49.586;8.646;2023-06-22T11:33:24;8.87;;;5.60;;
10641;SDS011;5369;49.586;8.646;2023-06-22T11:35:50;8.37;;;5.27;;
10641;SDS011;5369;49.586;8.646;2023-06-22T11:38:16;7.77;;;5.50;;
10641;SDS011;5369;49.586;8.646;2023-06-22T11:40:42;8.07;;;5.90;;
10641;SDS011;5369;49.586;8.646;2023-06-22T11:43:08;9.03;;;5.93;;
10641;SDS011;5369;49.586;8.646;2023-06-22T11:45:34;10.23;;;6.13;;
10641;SDS011;5369;49.586;8.646;2023-06-22T11:48:01;8.67;;;5.77;;
10641;SDS011;5369;49.586;8.646;2023-06-22T11:50:27;8.03;;;5.53;;
10641;SDS011;5369;49.586;8.646;2023-06-22T11:52:55;9.97;;;6.30;;
10641;SDS011;5369;49.586;8.646;2023-06-22T11:55:21;8.87;;;5.70;;
10641;SDS011;5369;49.586;8.646;2023-06-22T11:57:57;7.80;;;5.43;;
10641;SDS011;5369;49.586;8.646;2023-06-22T12:00:26;7.53;;;6.30;;
10641;SDS011;5369;49.586;8.646;2023-06-22T12:02:52;8.67;;;5.80;;
10641;SDS011;5369;49.586;8.646;2023-06-22T12:05:19;9.27;;;5.93;;
10641;SDS011;5369;49.586;8.646;2023-06-22T12:07:49;9.43;;;5.63;;
10641;SDS011;5369;49.586;8.646;2023-06-22T12:10:15;7.03;;;5.63;;
10641;SDS011;5369;49.586;8.646;2023-06-22T12:12:41;9.00;;;5.83;;
10641;SDS011;5369;49.586;8.646;2023-06-22T12:15:09;7.67;;;6.13;;
10641;SDS011;5369;49.586;8.646;2023-06-22T12:17:35;9.97;;;5.60;;
10641;SDS011;5369;49.586;8.646;2023-06-22T12:20:01;6.43;;;5.40;;
10641;SDS011;5369;49.586;8.646;2023-06-22T12:22:33;7.83;;;5.57;;
10641;SDS011;5369;49.586;8.646;2023-06-22T12:24:59;6.80;;;5.63;;
10641;SDS011;5369;49.586;8.646;2023-06-22T12:27:26;6.37;;;5.23;;
10641;SDS011;5369;49.586;8.646;2023-06-22T12:29:52;6.60;;;5.40;;
10641;SDS011;5369;49.586;8.646;2023-06-22T12:32:18;9.00;;;5.80;;
10641;SDS011;5369;49.586;8.646;2023-06-22T12:34:44;6.33;;;5.50;;
10641;SDS011;5369;49.586;8.646;2023-06-22T12:37:10;7.67;;;5.60;;
10641;SDS011;5369;49.586;8.646;2023-06-22T12:39:36;9.17;;;6.10;;
10641;SDS011;5369;49.586;8.646;2023-06-22T12:42:03;9.63;;;5.70;;
10641;SDS011;5369;49.586;8.646;2023-06-22T12:44:29;7.53;;;5.20;;
10641;SDS011;5369;49.586;8.646;2023-06-22T12:46:55;8.57;;;5.27;;
10641;SDS011;5369;49.586;8.646;2023-06-22T12:49:21;6.13;;;5.10;;
10641;SDS011;5369;49.586;8.646;2023-06-22T12:51:47;7.60;;;4.93;;
10641;SDS011;5369;49.586;8.646;2023-06-22T12:54:13;6.77;;;4.80;;
10641;SDS011;5369;49.586;8.646;2023-06-22T12:56:39;8.10;;;4.90;;
10641;SDS011;5369;49.586;8.646;2023-06-22T12:59:05;7.57;;;4.93;;
10641;SDS011;5369;49.586;8.646;2023-06-22T13:01:31;8.10;;;4.37;;
10641;SDS011;5369;49.586;8.646;2023-06-22T13:03:58;8.20;;;4.60;;
10641;SDS011;5369;49.586;8.646;2023-06-22T13:06:24;11.47;;;5.10;;
10641;SDS011;5369;49.586;8.646;2023-06-22T13:08:51;9.63;;;5.27;;
10641;SDS011;5369;49.586;8.646;2023-06-22T13:11:17;8.63;;;4.70;;
10641;SDS011;5369;49.586;8.646;2023-06-22T13:13:44;10.50;;;5.00;;
10641;SDS011;5369;49.586;8.646;2023-06-22T13:16:10;6.80;;;4.80;;
10641;SDS011;5369;49.586;8.646;2023-06-22T13:18:36;6.97;;;4.90;;
10641;SDS011;5369;49.586;8.646;2023-06-22T13:21:03;9.67;;;5.00;;
10641;SDS011;5369;49.586;8.646;2023-06-22T13:23:29;6.93;;;5.10;;
10641;SDS011;5369;49.586;8.646;2023-06-22T13:25:55;7.97;;;4.80;;
10641;SDS011;5369;49.586;8.646;2023-06-22T13:28:21;7.43;;;4.73;;
10641;SDS011;5369;49.586;8.646;2023-06-22T13:30:47;9.17;;;4.87;;
10641;SDS011;5369;49.586;8.646;2023-06-22T13:33:14;7.63;;;4.93;;
10641;SDS011;5369;49.586;8.646;2023-06-22T13:35:40;8.13;;;4.87;;
10641;SDS011;5369;49.586;8.646;2023-06-22T13:38:09;9.80;;;4.57;;
10641;SDS011;5369;49.586;8.646;2023-06-22T13:40:36;8.17;;;4.50;;
10641;SDS011;5369;49.586;8.646;2023-06-22T13:43:03;8.48;;;4.53;;
10641;SDS011;5369;49.586;8.646;2023-06-22T13:45:29;8.83;;;5.00;;
10641;SDS011;5369;49.586;8.646;2023-06-22T13:47:56;5.88;;;4.50;;
10641;SDS011;5369;49.586;8.646;2023-06-22T13:50:22;7.47;;;5.28;;
10641;SDS011;5369;49.586;8.646;2023-06-22T13:52:48;6.80;;;4.70;;
10641;SDS011;5369;49.586;8.646;2023-06-22T13:55:14;6.78;;;4.90;;
10641;SDS011;5369;49.586;8.646;2023-06-22T13:57:40;6.40;;;4.35;;
10641;SDS011;5369;49.586;8.646;2023-06-22T14:00:07;6.85;;;4.20;;
10641;SDS011;5369;49.586;8.646;2023-06-22T14:02:39;7.68;;;4.60;;
10641;SDS011;5369;49.586;8.646;2023-06-22T14:05:06;10.45;;;4.60;;
10641;SDS011;5369;49.586;8.646;2023-06-22T14:07:33;10.35;;;5.03;;
10641;SDS011;5369;49.586;8.646;2023-06-22T14:09:59;6.77;;;5.10;;
10641;SDS011;5369;49.586;8.646;2023-06-22T14:12:26;7.50;;;4.73;;
10641;SDS011;5369;49.586;8.646;2023-06-22T14:14:52;7.30;;;4.73;;
10641;SDS011;5369;49.586;8.646;2023-06-22T14:17:18;9.50;;;4.80;;
10641;SDS011;5369;49.586;8.646;2023-06-22T14:19:49;7.77;;;5.03;;
10641;SDS011;5369;49.586;8.646;2023-06-22T14:22:18;8.50;;;5.07;;
10641;SDS011;5369;49.586;8.646;2023-06-22T14:24:45;8.53;;;4.73;;
10641;SDS011;5369;49.586;8.646;2023-06-22T14:27:11;9.30;;;5.20;;
10641;SDS011;5369;49.586;8.646;2023-06-22T14:29:38;8.47;;;5.20;;
10641;SDS011;5369;49.586;8.646;2023-06-22T14:32:04;7.60;;;5.10;;
10641;SDS011;5369;49.586;8.646;2023-06-22T14:34:31;9.70;;;5.03;;
10641;SDS011;5369;49.586;8.646;2023-06-22T14:36:58;7.77;;;4.93;;
10641;SDS011;5369;49.586;8.646;2023-06-22T14:39:24;9.53;;;5.20;;
10641;SDS011;5369;49.586;8.646;2023-06-22T14:41:50;9.40;;;5.77;;
10641;SDS011;5369;49.586;8.646;2023-06-22T14:44:16;10.57;;;5.30;;
10641;SDS011;5369;49.586;8.646;2023-06-22T14:46:42;7.43;;;5.60;;
10641;SDS011;5369;49.586;8.646;2023-06-22T14:49:08;8.90;;;5.77;;
10641;SDS011;5369;49.586;8.646;2023-06-22T14:51:35;9.73;;;5.53;;
10641;SDS011;5369;49.586;8.646;2023-06-22T14:54:01;7.37;;;5.33;;
10641;SDS011;5369;49.586;8.646;2023-06-22T14:56:27;9.33;;;5.47;;
10641;SDS011;5369;49.586;8.646;2023-06-22T14:58:53;9.17;;;5.50;;
10641;SDS011;5369;49.586;8.646;2023-06-22T15:01:19;8.37;;;5.67;;
10641;SDS011;5369;49.586;8.646;2023-06-22T15:03:45;10.10;;;5.97;;
10641;SDS011;5369;49.586;8.646;2023-06-22T15:06:11;9.00;;;5.90;;